sensor_id;sensor_type;location;lat;lon;timestamp;temperature;humidity
66670;DHT22;53568;52.164;4.472;2023-05-10T00:00:40;14.87;78.84
66670;DHT22;53568;52.164;4.472;2023-05-10T00:03:05;14.86;78.86
66670;DHT22;53568;52.164;4.472;2023-05-10T00:05:31;14.82;78.88
66670;DHT22;53568;52.164;4.472;2023-05-10T00:07:57;14.80;79.02
66670;DHT22;53568;52.164;4.472;2023-05-10T00:10:22;14.72;79.03
66670;DHT22;53568;52.164;4.472;2023-05-10T00:12:48;14.68;79.13
66670;DHT22;53568;52.164;4.472;2023-05-10T00:15:13;14.65;79.52
66670;DHT22;53568;52.164;4.472;2023-05-10T00:17:39;14.66;79.42
66670;DHT22;53568;52.164;4.472;2023-05-10T00:20:05;14.75;78.97
66670;DHT22;53568;52.164;4.472;2023-05-10T00:22:31;14.72;79.03
66670;DHT22;53568;52.164;4.472;2023-05-10T00:24:57;14.68;79.29
66670;DHT22;53568;52.164;4.472;2023-05-10T00:27:23;14.68;79.41
66670;DHT22;53568;52.164;4.472;2023-05-10T00:29:49;14.71;79.34
66670;DHT22;53568;52.164;4.472;2023-05-10T00:32:14;14.75;79.27
66670;DHT22;53568;52.164;4.472;2023-05-10T00:34:40;14.75;79.16
66670;DHT22;53568;52.164;4.472;2023-05-10T00:37:06;14.76;78.90
66670;DHT22;53568;52.164;4.472;2023-05-10T00:39:31;14.79;78.51
66670;DHT22;53568;52.164;4.472;2023-05-10T00:41:57;14.72;78.77
66670;DHT22;53568;52.164;4.472;2023-05-10T00:44:22;14.72;78.87
66670;DHT22;53568;52.164;4.472;2023-05-10T00:46:49;14.66;78.90
66670;DHT22;53568;52.164;4.472;2023-05-10T00:49:15;14.65;78.69
66670;DHT22;53568;52.164;4.472;2023-05-10T00:51:41;14.59;79.01
66670;DHT22;53568;52.164;4.472;2023-05-10T00:54:11;14.62;79.00
66670;DHT22;53568;52.164;4.472;2023-05-10T00:56:36;14.61;79.03
66670;DHT22;53568;52.164;4.472;2023-05-10T00:59:03;14.62;79.03
66670;DHT22;53568;52.164;4.472;2023-05-10T01:01:28;14.65;79.01
66670;DHT22;53568;52.164;4.472;2023-05-10T01:03:55;14.71;78.98
66670;DHT22;53568;52.164;4.472;2023-05-10T01:06:21;14.72;78.84
66670;DHT22;53568;52.164;4.472;2023-05-10T01:08:46;14.75;78.68
66670;DHT22;53568;52.164;4.472;2023-05-10T01:11:13;14.73;78.60
66670;DHT22;53568;52.164;4.472;2023-05-10T01:13:41;14.77;78.50
66670;DHT22;53568;52.164;4.472;2023-05-10T01:16:08;14.77;78.26
66670;DHT22;53568;52.164;4.472;2023-05-10T01:18:38;14.80;78.22
66670;DHT22;53568;52.164;4.472;2023-05-10T01:21:33;14.73;78.31
66670;DHT22;53568;52.164;4.472;2023-05-10T01:32:30;14.83;78.62
66670;DHT22;53568;52.164;4.472;2023-05-10T01:35:14;14.86;78.59
66670;DHT22;53568;52.164;4.472;2023-05-10T01:40:45;14.89;78.70
66670;DHT22;53568;52.164;4.472;2023-05-10T01:43:22;14.95;78.71
66670;DHT22;53568;52.164;4.472;2023-05-10T01:46:09;14.97;78.66
66670;DHT22;53568;52.164;4.472;2023-05-10T01:48:48;14.99;78.68
66670;DHT22;53568;52.164;4.472;2023-05-10T01:51:21;15.02;78.63
66670;DHT22;53568;52.164;4.472;2023-05-10T01:53:48;15.03;78.55
66670;DHT22;53568;52.164;4.472;2023-05-10T01:56:15;15.00;78.47
66670;DHT22;53568;52.164;4.472;2023-05-10T01:58:43;14.99;78.60
66670;DHT22;53568;52.164;4.472;2023-05-10T02:01:13;14.97;78.59
66670;DHT22;53568;52.164;4.472;2023-05-10T02:03:42;14.97;78.78
66670;DHT22;53568;52.164;4.472;2023-05-10T02:06:10;14.96;78.82
66670;DHT22;53568;52.164;4.472;2023-05-10T02:08:40;14.97;78.82
66670;DHT22;53568;52.164;4.472;2023-05-10T02:11:07;14.95;78.98
66670;DHT22;53568;52.164;4.472;2023-05-10T02:13:36;14.96;79.02
66670;DHT22;53568;52.164;4.472;2023-05-10T02:16:05;15.00;79.02
66670;DHT22;53568;52.164;4.472;2023-05-10T02:18:33;14.96;78.90
66670;DHT22;53568;52.164;4.472;2023-05-10T02:21:02;14.90;79.12
66670;DHT22;53568;52.164;4.472;2023-05-10T02:23:28;14.87;79.19
66670;DHT22;53568;52.164;4.472;2023-05-10T02:25:56;14.89;79.44
66670;DHT22;53568;52.164;4.472;2023-05-10T02:28:24;14.89;79.63
66670;DHT22;53568;52.164;4.472;2023-05-10T02:30:52;14.93;79.68
66670;DHT22;53568;52.164;4.472;2023-05-10T02:33:27;14.95;79.69
66670;DHT22;53568;52.164;4.472;2023-05-10T02:35:54;14.96;79.57
66670;DHT22;53568;52.164;4.472;2023-05-10T02:38:23;14.99;79.55
66670;DHT22;53568;52.164;4.472;2023-05-10T02:40:50;14.97;79.54
66670;DHT22;53568;52.164;4.472;2023-05-10T02:43:18;15.02;79.48
66670;DHT22;53568;52.164;4.472;2023-05-10T02:45:47;15.02;79.57
66670;DHT22;53568;52.164;4.472;2023-05-10T02:48:13;15.03;79.55
66670;DHT22;53568;52.164;4.472;2023-05-10T02:50:44;15.00;79.58
66670;DHT22;53568;52.164;4.472;2023-05-10T02:53:15;14.92;79.77
66670;DHT22;53568;52.164;4.472;2023-05-10T02:55:48;14.92;79.71
66670;DHT22;53568;52.164;4.472;2023-05-10T02:58:14;14.87;80.06
66670;DHT22;53568;52.164;4.472;2023-05-10T03:00:40;14.77;80.18
66670;DHT22;53568;52.164;4.472;2023-05-10T03:03:05;14.73;80.50
66670;DHT22;53568;52.164;4.472;2023-05-10T03:05:31;14.69;80.54
66670;DHT22;53568;52.164;4.472;2023-05-10T03:07:59;14.65;80.80
66670;DHT22;53568;52.164;4.472;2023-05-10T03:10:29;14.65;80.69
66670;DHT22;53568;52.164;4.472;2023-05-10T03:16:08;14.62;81.02
66670;DHT22;53568;52.164;4.472;2023-05-10T03:18:52;14.43;81.49
66670;DHT22;53568;52.164;4.472;2023-05-10T03:21:22;14.42;81.59
66670;DHT22;53568;52.164;4.472;2023-05-10T03:23:58;14.35;81.83
66670;DHT22;53568;52.164;4.472;2023-05-10T03:26:27;14.41;81.91
66670;DHT22;53568;52.164;4.472;2023-05-10T03:28:53;14.46;81.89
66670;DHT22;53568;52.164;4.472;2023-05-10T03:31:19;14.43;81.15
66670;DHT22;53568;52.164;4.472;2023-05-10T03:33:47;14.22;82.28
66670;DHT22;53568;52.164;4.472;2023-05-10T03:36:13;14.04;82.50
66670;DHT22;53568;52.164;4.472;2023-05-10T03:38:39;13.97;83.16
66670;DHT22;53568;52.164;4.472;2023-05-10T03:41:04;13.84;83.95
66670;DHT22;53568;52.164;4.472;2023-05-10T03:43:30;13.85;84.08
66670;DHT22;53568;52.164;4.472;2023-05-10T03:45:55;13.88;83.75
66670;DHT22;53568;52.164;4.472;2023-05-10T03:48:21;13.84;84.05
66670;DHT22;53568;52.164;4.472;2023-05-10T03:50:47;13.92;84.21
66670;DHT22;53568;52.164;4.472;2023-05-10T03:53:14;13.91;83.81
66670;DHT22;53568;52.164;4.472;2023-05-10T03:55:40;13.91;84.27
66670;DHT22;53568;52.164;4.472;2023-05-10T03:58:05;14.00;84.27
66670;DHT22;53568;52.164;4.472;2023-05-10T04:00:31;14.09;84.22
66670;DHT22;53568;52.164;4.472;2023-05-10T04:02:57;14.09;83.56
66670;DHT22;53568;52.164;4.472;2023-05-10T04:05:23;14.19;83.47
66670;DHT22;53568;52.164;4.472;2023-05-10T04:07:49;14.05;83.16
66670;DHT22;53568;52.164;4.472;2023-05-10T04:10:15;14.04;83.32
66670;DHT22;53568;52.164;4.472;2023-05-10T04:12:41;14.05;83.11
66670;DHT22;53568;52.164;4.472;2023-05-10T04:15:07;13.98;83.00
66670;DHT22;53568;52.164;4.472;2023-05-10T04:17:33;13.91;83.02
66670;DHT22;53568;52.164;4.472;2023-05-10T04:19:59;13.91;82.73
66670;DHT22;53568;52.164;4.472;2023-05-10T04:22:24;13.92;82.49
66670;DHT22;53568;52.164;4.472;2023-05-10T04:24:50;13.91;82.67
66670;DHT22;53568;52.164;4.472;2023-05-10T04:27:15;13.92;82.61
66670;DHT22;53568;52.164;4.472;2023-05-10T04:29:41;13.97;82.46
66670;DHT22;53568;52.164;4.472;2023-05-10T04:32:07;14.01;82.67
66670;DHT22;53568;52.164;4.472;2023-05-10T04:34:33;14.04;82.56
66670;DHT22;53568;52.164;4.472;2023-05-10T04:36:59;14.07;82.39
66670;DHT22;53568;52.164;4.472;2023-05-10T04:39:25;14.12;82.15
66670;DHT22;53568;52.164;4.472;2023-05-10T04:41:50;14.12;82.08
66670;DHT22;53568;52.164;4.472;2023-05-10T04:44:16;14.12;81.84
66670;DHT22;53568;52.164;4.472;2023-05-10T04:46:41;14.15;81.74
66670;DHT22;53568;52.164;4.472;2023-05-10T04:49:07;14.11;81.59
66670;DHT22;53568;52.164;4.472;2023-05-10T04:51:32;14.02;81.77
66670;DHT22;53568;52.164;4.472;2023-05-10T04:53:58;13.97;81.90
66670;DHT22;53568;52.164;4.472;2023-05-10T04:56:23;13.97;81.83
66670;DHT22;53568;52.164;4.472;2023-05-10T04:58:49;13.92;81.89
66670;DHT22;53568;52.164;4.472;2023-05-10T05:01:15;13.97;82.09
66670;DHT22;53568;52.164;4.472;2023-05-10T05:03:40;13.95;82.03
66670;DHT22;53568;52.164;4.472;2023-05-10T05:06:06;13.95;82.00
66670;DHT22;53568;52.164;4.472;2023-05-10T05:08:32;14.00;81.95
66670;DHT22;53568;52.164;4.472;2023-05-10T05:10:57;13.94;81.88
66670;DHT22;53568;52.164;4.472;2023-05-10T05:13:23;13.85;82.12
66670;DHT22;53568;52.164;4.472;2023-05-10T05:15:48;13.85;82.46
66670;DHT22;53568;52.164;4.472;2023-05-10T05:18:14;13.84;82.48
66670;DHT22;53568;52.164;4.472;2023-05-10T05:20:40;13.85;82.73
66670;DHT22;53568;52.164;4.472;2023-05-10T05:23:05;13.91;82.77
66670;DHT22;53568;52.164;4.472;2023-05-10T05:25:31;14.00;82.66
66670;DHT22;53568;52.164;4.472;2023-05-10T05:27:56;14.01;82.52
66670;DHT22;53568;52.164;4.472;2023-05-10T05:30:22;14.05;82.46
66670;DHT22;53568;52.164;4.472;2023-05-10T05:32:47;14.02;82.50
66670;DHT22;53568;52.164;4.472;2023-05-10T05:35:13;14.04;82.43
66670;DHT22;53568;52.164;4.472;2023-05-10T05:37:38;14.04;82.35
66670;DHT22;53568;52.164;4.472;2023-05-10T05:40:05;14.09;82.24
66670;DHT22;53568;52.164;4.472;2023-05-10T05:42:31;14.08;82.16
66670;DHT22;53568;52.164;4.472;2023-05-10T05:44:57;14.11;81.99
66670;DHT22;53568;52.164;4.472;2023-05-10T05:47:22;14.04;81.83
66670;DHT22;53568;52.164;4.472;2023-05-10T05:49:48;14.09;82.03
66670;DHT22;53568;52.164;4.472;2023-05-10T05:52:13;14.14;81.93
66670;DHT22;53568;52.164;4.472;2023-05-10T05:54:39;14.18;81.91
66670;DHT22;53568;52.164;4.472;2023-05-10T05:57:05;14.25;81.89
66670;DHT22;53568;52.164;4.472;2023-05-10T05:59:31;14.29;81.66
66670;DHT22;53568;52.164;4.472;2023-05-10T06:01:56;14.36;81.75
66670;DHT22;53568;52.164;4.472;2023-05-10T06:04:22;14.45;81.51
66670;DHT22;53568;52.164;4.472;2023-05-10T06:06:47;14.43;81.47
66670;DHT22;53568;52.164;4.472;2023-05-10T06:09:13;14.55;81.39
66670;DHT22;53568;52.164;4.472;2023-05-10T06:11:38;14.53;81.17
66670;DHT22;53568;52.164;4.472;2023-05-10T06:14:05;14.53;81.17
66670;DHT22;53568;52.164;4.472;2023-05-10T06:16:33;14.56;80.94
66670;DHT22;53568;52.164;4.472;2023-05-10T06:18:59;14.62;81.09
66670;DHT22;53568;52.164;4.472;2023-05-10T06:21:24;14.68;80.97
66670;DHT22;53568;52.164;4.472;2023-05-10T06:23:51;14.76;80.68
66670;DHT22;53568;52.164;4.472;2023-05-10T06:26:16;14.68;80.55
66670;DHT22;53568;52.164;4.472;2023-05-10T06:28:42;14.69;80.61
66670;DHT22;53568;52.164;4.472;2023-05-10T06:31:07;14.71;80.81
66670;DHT22;53568;52.164;4.472;2023-05-10T06:33:38;14.73;80.88
66670;DHT22;53568;52.164;4.472;2023-05-10T06:36:04;14.71;80.90
66670;DHT22;53568;52.164;4.472;2023-05-10T06:38:29;14.80;81.02
66670;DHT22;53568;52.164;4.472;2023-05-10T06:40:55;14.85;80.89
66670;DHT22;53568;52.164;4.472;2023-05-10T06:43:21;14.83;80.80
66670;DHT22;53568;52.164;4.472;2023-05-10T06:45:47;14.85;80.79
66670;DHT22;53568;52.164;4.472;2023-05-10T06:48:13;14.93;80.85
66670;DHT22;53568;52.164;4.472;2023-05-10T06:50:38;14.99;80.54
66670;DHT22;53568;52.164;4.472;2023-05-10T07:03:11;14.75;80.85
66670;DHT22;53568;52.164;4.472;2023-05-10T07:05:36;14.68;81.27
66670;DHT22;53568;52.164;4.472;2023-05-10T07:08:02;14.68;81.24
66670;DHT22;53568;52.164;4.472;2023-05-10T07:10:28;14.80;81.29
66670;DHT22;53568;52.164;4.472;2023-05-10T07:12:53;14.87;80.93
66670;DHT22;53568;52.164;4.472;2023-05-10T07:15:19;14.77;81.28
66670;DHT22;53568;52.164;4.472;2023-05-10T07:17:44;14.83;81.05
66670;DHT22;53568;52.164;4.472;2023-05-10T07:20:11;14.99;81.25
66670;DHT22;53568;52.164;4.472;2023-05-10T07:22:36;15.16;80.87
66670;DHT22;53568;52.164;4.472;2023-05-10T07:25:02;15.26;80.80
66670;DHT22;53568;52.164;4.472;2023-05-10T07:27:27;15.41;80.74
66670;DHT22;53568;52.164;4.472;2023-05-10T07:29:53;15.37;80.13
66670;DHT22;53568;52.164;4.472;2023-05-10T07:32:20;15.36;79.64
66670;DHT22;53568;52.164;4.472;2023-05-10T07:34:45;15.28;79.29
66670;DHT22;53568;52.164;4.472;2023-05-10T07:37:11;15.24;79.11
66670;DHT22;53568;52.164;4.472;2023-05-10T07:39:37;15.11;79.48
66670;DHT22;53568;52.164;4.472;2023-05-10T07:42:02;15.02;79.97
66670;DHT22;53568;52.164;4.472;2023-05-10T07:44:28;15.02;80.09
66670;DHT22;53568;52.164;4.472;2023-05-10T07:46:54;15.08;80.23
66670;DHT22;53568;52.164;4.472;2023-05-10T07:49:20;15.11;80.01
66670;DHT22;53568;52.164;4.472;2023-05-10T07:51:46;15.27;79.68
66670;DHT22;53568;52.164;4.472;2023-05-10T07:54:12;15.24;79.89
66670;DHT22;53568;52.164;4.472;2023-05-10T07:56:38;15.31;79.89
66670;DHT22;53568;52.164;4.472;2023-05-10T07:59:04;15.40;79.61
66670;DHT22;53568;52.164;4.472;2023-05-10T08:01:33;15.47;79.25
66670;DHT22;53568;52.164;4.472;2023-05-10T08:03:59;15.54;78.82
66670;DHT22;53568;52.164;4.472;2023-05-10T08:06:25;15.43;78.74
66670;DHT22;53568;52.164;4.472;2023-05-10T08:08:52;15.46;78.74
66670;DHT22;53568;52.164;4.472;2023-05-10T08:11:20;15.55;78.88
66670;DHT22;53568;52.164;4.472;2023-05-10T08:13:48;15.67;78.55
66670;DHT22;53568;52.164;4.472;2023-05-10T08:16:14;15.71;78.05
66670;DHT22;53568;52.164;4.472;2023-05-10T08:18:40;15.71;77.94
66670;DHT22;53568;52.164;4.472;2023-05-10T08:21:06;15.74;77.64
66670;DHT22;53568;52.164;4.472;2023-05-10T08:23:33;15.77;77.52
66670;DHT22;53568;52.164;4.472;2023-05-10T08:25:59;15.70;77.05
66670;DHT22;53568;52.164;4.472;2023-05-10T08:28:24;15.70;77.44
66670;DHT22;53568;52.164;4.472;2023-05-10T08:30:50;15.67;77.38
66670;DHT22;53568;52.164;4.472;2023-05-10T08:33:33;15.68;77.48
66670;DHT22;53568;52.164;4.472;2023-05-10T08:35:59;15.74;77.59
66670;DHT22;53568;52.164;4.472;2023-05-10T08:38:25;15.64;77.63
66670;DHT22;53568;52.164;4.472;2023-05-10T08:40:54;15.65;77.45
66670;DHT22;53568;52.164;4.472;2023-05-10T08:43:26;15.61;78.00
66670;DHT22;53568;52.164;4.472;2023-05-10T08:45:54;15.71;78.06
66670;DHT22;53568;52.164;4.472;2023-05-10T08:48:23;15.80;77.99
66670;DHT22;53568;52.164;4.472;2023-05-10T08:50:53;15.95;77.96
66670;DHT22;53568;52.164;4.472;2023-05-10T08:53:20;15.92;77.87
66670;DHT22;53568;52.164;4.472;2023-05-10T08:55:47;15.91;77.47
66670;DHT22;53568;52.164;4.472;2023-05-10T08:58:13;15.91;77.55
66670;DHT22;53568;52.164;4.472;2023-05-10T09:00:39;15.88;77.37
66670;DHT22;53568;52.164;4.472;2023-05-10T09:03:05;15.94;77.23
66670;DHT22;53568;52.164;4.472;2023-05-10T09:05:31;15.97;77.27
66670;DHT22;53568;52.164;4.472;2023-05-10T09:07:57;16.04;77.24
66670;DHT22;53568;52.164;4.472;2023-05-10T09:10:26;16.15;76.89
66670;DHT22;53568;52.164;4.472;2023-05-10T09:12:56;16.19;76.86
66670;DHT22;53568;52.164;4.472;2023-05-10T09:15:21;16.25;76.95
66670;DHT22;53568;52.164;4.472;2023-05-10T09:17:49;16.29;76.46
66670;DHT22;53568;52.164;4.472;2023-05-10T09:20:15;16.29;75.93
66670;DHT22;53568;52.164;4.472;2023-05-10T09:22:42;16.30;75.85
66670;DHT22;53568;52.164;4.472;2023-05-10T09:25:10;16.26;75.89
66670;DHT22;53568;52.164;4.472;2023-05-10T09:27:37;16.21;75.88
66670;DHT22;53568;52.164;4.472;2023-05-10T09:30:04;16.19;75.68
66670;DHT22;53568;52.164;4.472;2023-05-10T09:32:40;16.02;76.30
66670;DHT22;53568;52.164;4.472;2023-05-10T09:35:10;15.92;76.93
66670;DHT22;53568;52.164;4.472;2023-05-10T09:37:39;15.98;77.22
66670;DHT22;53568;52.164;4.472;2023-05-10T09:40:13;16.14;76.79
66670;DHT22;53568;52.164;4.472;2023-05-10T09:42:55;16.14;76.94
66670;DHT22;53568;52.164;4.472;2023-05-10T09:45:22;16.30;76.56
66670;DHT22;53568;52.164;4.472;2023-05-10T09:47:48;16.38;76.14
66670;DHT22;53568;52.164;4.472;2023-05-10T09:50:13;16.49;76.05
66670;DHT22;53568;52.164;4.472;2023-05-10T09:52:50;16.53;76.27
66670;DHT22;53568;52.164;4.472;2023-05-10T09:55:18;16.58;76.20
66670;DHT22;53568;52.164;4.472;2023-05-10T09:57:46;16.46;75.78
66670;DHT22;53568;52.164;4.472;2023-05-10T10:00:17;16.35;76.07
66670;DHT22;53568;52.164;4.472;2023-05-10T10:02:45;16.24;75.99
66670;DHT22;53568;52.164;4.472;2023-05-10T10:05:11;16.02;76.34
66670;DHT22;53568;52.164;4.472;2023-05-10T10:07:37;15.78;77.13
66670;DHT22;53568;52.164;4.472;2023-05-10T10:10:03;15.80;77.09
66670;DHT22;53568;52.164;4.472;2023-05-10T10:12:30;15.60;77.59
66670;DHT22;53568;52.164;4.472;2023-05-10T10:14:56;15.50;77.86
66670;DHT22;53568;52.164;4.472;2023-05-10T10:17:26;15.53;78.00
66670;DHT22;53568;52.164;4.472;2023-05-10T10:19:54;15.61;77.66
66670;DHT22;53568;52.164;4.472;2023-05-10T10:22:20;15.53;77.80
66670;DHT22;53568;52.164;4.472;2023-05-10T10:24:45;15.54;77.52
66670;DHT22;53568;52.164;4.472;2023-05-10T10:30:07;15.40;78.28
66670;DHT22;53568;52.164;4.472;2023-05-10T10:35:45;15.49;78.54
66670;DHT22;53568;52.164;4.472;2023-05-10T10:38:12;15.46;78.38
66670;DHT22;53568;52.164;4.472;2023-05-10T10:40:38;15.31;78.73
66670;DHT22;53568;52.164;4.472;2023-05-10T10:43:26;15.22;79.10
66670;DHT22;53568;52.164;4.472;2023-05-10T10:46:12;15.11;79.27
66670;DHT22;53568;52.164;4.472;2023-05-10T10:48:40;15.06;79.46
66670;DHT22;53568;52.164;4.472;2023-05-10T10:51:05;14.89;80.26
66670;DHT22;53568;52.164;4.472;2023-05-10T10:53:32;14.87;80.42
66670;DHT22;53568;52.164;4.472;2023-05-10T10:56:08;14.93;80.55
66670;DHT22;53568;52.164;4.472;2023-05-10T10:58:36;14.90;80.79
66670;DHT22;53568;52.164;4.472;2023-05-10T11:01:17;14.92;81.04
66670;DHT22;53568;52.164;4.472;2023-05-10T11:06:40;15.13;80.37
66670;DHT22;53568;52.164;4.472;2023-05-10T11:09:09;15.11;80.47
66670;DHT22;53568;52.164;4.472;2023-05-10T11:11:36;15.13;80.64
66670;DHT22;53568;52.164;4.472;2023-05-10T11:14:06;15.19;80.06
66670;DHT22;53568;52.164;4.472;2023-05-10T11:16:42;15.14;79.85
66670;DHT22;53568;52.164;4.472;2023-05-10T11:19:11;15.17;79.95
66670;DHT22;53568;52.164;4.472;2023-05-10T11:22:12;15.20;80.02
66670;DHT22;53568;52.164;4.472;2023-05-10T11:24:36;15.27;80.23
66670;DHT22;53568;52.164;4.472;2023-05-10T11:27:01;15.36;79.71
66670;DHT22;53568;52.164;4.472;2023-05-10T11:29:27;15.40;79.54
66670;DHT22;53568;52.164;4.472;2023-05-10T11:31:57;15.46;79.40
66670;DHT22;53568;52.164;4.472;2023-05-10T11:34:29;15.47;79.21
66670;DHT22;53568;52.164;4.472;2023-05-10T11:36:57;15.50;79.40
66670;DHT22;53568;52.164;4.472;2023-05-10T11:39:45;15.57;79.28
66670;DHT22;53568;52.164;4.472;2023-05-10T11:42:12;15.57;78.65
66670;DHT22;53568;52.164;4.472;2023-05-10T11:44:38;15.60;78.70
66670;DHT22;53568;52.164;4.472;2023-05-10T11:47:05;15.67;78.79
66670;DHT22;53568;52.164;4.472;2023-05-10T11:49:30;15.75;78.75
66670;DHT22;53568;52.164;4.472;2023-05-10T11:52:06;15.87;78.75
66670;DHT22;53568;52.164;4.472;2023-05-10T11:54:32;15.82;78.37
66670;DHT22;53568;52.164;4.472;2023-05-10T11:57:00;15.72;78.49
66670;DHT22;53568;52.164;4.472;2023-05-10T11:59:25;15.75;78.81
66670;DHT22;53568;52.164;4.472;2023-05-10T12:01:51;15.80;79.19
66670;DHT22;53568;52.164;4.472;2023-05-10T12:04:17;15.84;78.96
66670;DHT22;53568;52.164;4.472;2023-05-10T12:06:42;15.90;78.46
66670;DHT22;53568;52.164;4.472;2023-05-10T12:09:08;15.88;78.28
66670;DHT22;53568;52.164;4.472;2023-05-10T12:11:38;15.88;78.29
66670;DHT22;53568;52.164;4.472;2023-05-10T12:14:05;16.00;78.11
66670;DHT22;53568;52.164;4.472;2023-05-10T12:16:30;15.84;77.79
66670;DHT22;53568;52.164;4.472;2023-05-10T12:18:59;15.92;77.79
66670;DHT22;53568;52.164;4.472;2023-05-10T12:21:26;15.85;78.06
66670;DHT22;53568;52.164;4.472;2023-05-10T12:23:53;15.88;78.29
66670;DHT22;53568;52.164;4.472;2023-05-10T12:26:23;15.84;78.45
66670;DHT22;53568;52.164;4.472;2023-05-10T12:28:49;15.80;78.49
66670;DHT22;53568;52.164;4.472;2023-05-10T12:31:15;15.71;78.38
66670;DHT22;53568;52.164;4.472;2023-05-10T12:33:43;15.71;78.44
66670;DHT22;53568;52.164;4.472;2023-05-10T12:36:13;15.80;78.54
66670;DHT22;53568;52.164;4.472;2023-05-10T12:38:41;15.90;78.25
66670;DHT22;53568;52.164;4.472;2023-05-10T12:41:15;15.97;77.84
66670;DHT22;53568;52.164;4.472;2023-05-10T12:43:41;15.94;77.59
66670;DHT22;53568;52.164;4.472;2023-05-10T12:46:12;15.87;78.22
66670;DHT22;53568;52.164;4.472;2023-05-10T12:48:39;15.98;78.21
66670;DHT22;53568;52.164;4.472;2023-05-10T12:51:06;16.15;77.80
66670;DHT22;53568;52.164;4.472;2023-05-10T12:53:35;16.11;76.74
66670;DHT22;53568;52.164;4.472;2023-05-10T12:56:01;16.12;76.58
66670;DHT22;53568;52.164;4.472;2023-05-10T12:58:26;16.00;76.76
66670;DHT22;53568;52.164;4.472;2023-05-10T13:00:52;16.04;76.86
66670;DHT22;53568;52.164;4.472;2023-05-10T13:03:17;16.00;76.62
66670;DHT22;53568;52.164;4.472;2023-05-10T13:05:43;16.08;76.78
66670;DHT22;53568;52.164;4.472;2023-05-10T13:08:09;16.08;76.31
66670;DHT22;53568;52.164;4.472;2023-05-10T13:10:34;16.14;76.22
66670;DHT22;53568;52.164;4.472;2023-05-10T13:13:00;16.19;75.96
66670;DHT22;53568;52.164;4.472;2023-05-10T13:15:26;16.18;75.83
66670;DHT22;53568;52.164;4.472;2023-05-10T13:17:53;16.18;75.87
66670;DHT22;53568;52.164;4.472;2023-05-10T13:20:18;16.25;75.99
66670;DHT22;53568;52.164;4.472;2023-05-10T13:22:44;16.14;76.23
66670;DHT22;53568;52.164;4.472;2023-05-10T13:25:11;16.15;75.48
66670;DHT22;53568;52.164;4.472;2023-05-10T13:27:40;16.06;76.19
66670;DHT22;53568;52.164;4.472;2023-05-10T13:30:07;15.95;76.51
66670;DHT22;53568;52.164;4.472;2023-05-10T13:32:33;16.01;76.65
66670;DHT22;53568;52.164;4.472;2023-05-10T13:34:58;16.08;76.20
66670;DHT22;53568;52.164;4.472;2023-05-10T13:37:24;16.12;75.85
66670;DHT22;53568;52.164;4.472;2023-05-10T13:39:49;16.14;75.61
66670;DHT22;53568;52.164;4.472;2023-05-10T13:42:15;16.18;75.66
66670;DHT22;53568;52.164;4.472;2023-05-10T13:44:40;16.15;75.59
66670;DHT22;53568;52.164;4.472;2023-05-10T13:47:06;16.02;76.15
66670;DHT22;53568;52.164;4.472;2023-05-10T13:49:32;16.16;75.97
66670;DHT22;53568;52.164;4.472;2023-05-10T13:51:59;16.21;76.48
66670;DHT22;53568;52.164;4.472;2023-05-10T13:54:26;16.25;76.03
66670;DHT22;53568;52.164;4.472;2023-05-10T13:56:54;16.38;75.66
66670;DHT22;53568;52.164;4.472;2023-05-10T13:59:20;16.49;75.32
66670;DHT22;53568;52.164;4.472;2023-05-10T14:01:45;16.42;75.34
66670;DHT22;53568;52.164;4.472;2023-05-10T14:04:11;16.51;75.40
66670;DHT22;53568;52.164;4.472;2023-05-10T14:06:36;16.65;74.79
66670;DHT22;53568;52.164;4.472;2023-05-10T14:09:03;16.62;74.40
66670;DHT22;53568;52.164;4.472;2023-05-10T14:11:28;16.72;74.52
66670;DHT22;53568;52.164;4.472;2023-05-10T14:13:54;16.65;74.72
66670;DHT22;53568;52.164;4.472;2023-05-10T14:16:20;16.65;74.65
66670;DHT22;53568;52.164;4.472;2023-05-10T14:18:46;16.73;74.57
66670;DHT22;53568;52.164;4.472;2023-05-10T14:21:12;16.72;74.11
66670;DHT22;53568;52.164;4.472;2023-05-10T14:23:37;16.73;73.82
66670;DHT22;53568;52.164;4.472;2023-05-10T14:26:03;16.77;73.55
66670;DHT22;53568;52.164;4.472;2023-05-10T14:28:28;16.75;73.55
66670;DHT22;53568;52.164;4.472;2023-05-10T14:30:54;16.75;73.12
66670;DHT22;53568;52.164;4.472;2023-05-10T14:33:19;16.73;73.20
66670;DHT22;53568;52.164;4.472;2023-05-10T14:35:46;16.65;73.43
66670;DHT22;53568;52.164;4.472;2023-05-10T14:38:12;16.63;73.48
66670;DHT22;53568;52.164;4.472;2023-05-10T14:40:38;16.51;73.86
66670;DHT22;53568;52.164;4.472;2023-05-10T14:43:03;16.53;73.88
66670;DHT22;53568;52.164;4.472;2023-05-10T14:45:29;16.45;74.17
66670;DHT22;53568;52.164;4.472;2023-05-10T14:47:54;16.45;74.53
66670;DHT22;53568;52.164;4.472;2023-05-10T14:50:20;16.49;74.22
66670;DHT22;53568;52.164;4.472;2023-05-10T14:52:46;16.46;74.07
66670;DHT22;53568;52.164;4.472;2023-05-10T14:55:11;16.32;74.87
66670;DHT22;53568;52.164;4.472;2023-05-10T14:57:37;16.30;75.40
66670;DHT22;53568;52.164;4.472;2023-05-10T15:00:03;16.18;75.45
66670;DHT22;53568;52.164;4.472;2023-05-10T15:02:30;16.06;76.08
66670;DHT22;53568;52.164;4.472;2023-05-10T15:04:56;16.18;75.82
66670;DHT22;53568;52.164;4.472;2023-05-10T15:07:23;16.08;75.50
66670;DHT22;53568;52.164;4.472;2023-05-10T15:09:49;16.16;75.19
66670;DHT22;53568;52.164;4.472;2023-05-10T15:12:14;15.98;75.05
66670;DHT22;53568;52.164;4.472;2023-05-10T15:14:40;15.81;76.30
66670;DHT22;53568;52.164;4.472;2023-05-10T15:17:06;15.55;77.33
66670;DHT22;53568;52.164;4.472;2023-05-10T15:19:32;15.60;77.33
66670;DHT22;53568;52.164;4.472;2023-05-10T15:21:58;15.74;77.10
66670;DHT22;53568;52.164;4.472;2023-05-10T15:24:24;15.54;76.41
66670;DHT22;53568;52.164;4.472;2023-05-10T15:26:50;15.17;77.92
66670;DHT22;53568;52.164;4.472;2023-05-10T15:29:16;14.95;79.29
66670;DHT22;53568;52.164;4.472;2023-05-10T15:31:46;15.10;79.47
66670;DHT22;53568;52.164;4.472;2023-05-10T15:34:13;15.30;79.03
66670;DHT22;53568;52.164;4.472;2023-05-10T15:36:38;15.41;78.40
66670;DHT22;53568;52.164;4.472;2023-05-10T15:39:04;15.46;78.12
66670;DHT22;53568;52.164;4.472;2023-05-10T15:41:29;15.54;77.64
66670;DHT22;53568;52.164;4.472;2023-05-10T15:43:55;15.67;77.60
66670;DHT22;53568;52.164;4.472;2023-05-10T15:46:21;15.68;77.10
66670;DHT22;53568;52.164;4.472;2023-05-10T15:48:46;15.77;77.07
66670;DHT22;53568;52.164;4.472;2023-05-10T15:51:12;15.85;77.01
66670;DHT22;53568;52.164;4.472;2023-05-10T15:53:37;15.95;76.59
66670;DHT22;53568;52.164;4.472;2023-05-10T15:56:04;16.06;76.75
66670;DHT22;53568;52.164;4.472;2023-05-10T15:58:29;16.21;76.21
66670;DHT22;53568;52.164;4.472;2023-05-10T16:00:56;16.35;75.85
66670;DHT22;53568;52.164;4.472;2023-05-10T16:03:22;16.41;75.16